WJA506 CYUL-CYQM
Flight info
| Callsign | WJA506 |
|---|---|
| Flight time | 1h 18m |
| Altitude | 37000 |
| Route | SUXET NOVUN ESRAM RABIK Q951 PUXOP |
| Aircraft | B738/M-VGDW/C |
Departure
| Time | 2026-05-05 16:18 |
|---|---|
| Airport | Montreal / Pierre Elliott Trudeau International Airport (CYUL) |
Arrival
| Time | 2026-05-05 17:36 |
|---|---|
| Airport | Greater Moncton Roméo LeBlanc International Airport (CYQM) |
| Time | Latitude | Longitude | Altitude | Speed | Heading |
|---|---|---|---|---|---|
| 2026-05-05 15:55 | 45.45867 | -73.74651 | 107 ft | 0 kts | 180° |
| 2026-05-05 16:04 | 45.45880 | -73.74651 | 107 ft | 2 kts | 179° |
| 2026-05-05 16:04 | 45.45895 | -73.74651 | 107 ft | 2 kts | 180° |
| 2026-05-05 16:04 | 45.45910 | -73.74651 | 107 ft | 2 kts | 180° |
| 2026-05-05 16:05 | 45.45920 | -73.74651 | 107 ft | 1 kts | 180° |
| 2026-05-05 16:05 | 45.45934 | -73.74654 | 107 ft | 2 kts | 148° |
| 2026-05-05 16:05 | 45.45945 | -73.74669 | 107 ft | 2 kts | 121° |
| 2026-05-05 16:05 | 45.45950 | -73.74686 | 107 ft | 0 kts | 95° |
| 2026-05-05 16:06 | 45.45950 | -73.74696 | 107 ft | 1 kts | 91° |
| 2026-05-05 16:06 | 45.45950 | -73.74698 | 107 ft | 0 kts | 91° |
| 2026-05-05 16:10 | 45.45950 | -73.74695 | 107 ft | 1 kts | 91° |
| 2026-05-05 16:10 | 45.45953 | -73.74638 | 107 ft | 7 kts | 82° |
| 2026-05-05 16:10 | 45.45972 | -73.74546 | 107 ft | 10 kts | 71° |
| 2026-05-05 16:11 | 45.45995 | -73.74446 | 107 ft | 11 kts | 78° |
| 2026-05-05 16:11 | 45.46137 | -73.74049 | 107 ft | 17 kts | 42° |
| 2026-05-05 16:12 | 45.46225 | -73.73934 | 107 ft | 17 kts | 42° |
| 2026-05-05 16:12 | 45.46425 | -73.73671 | 107 ft | 23 kts | 43° |
| 2026-05-05 16:13 | 45.46802 | -73.73174 | 110 ft | 23 kts | 43° |
| 2026-05-05 16:13 | 45.46921 | -73.73017 | 112 ft | 22 kts | 42° |
| 2026-05-05 16:13 | 45.47033 | -73.72871 | 113 ft | 21 kts | 42° |
| 2026-05-05 16:14 | 45.47259 | -73.72574 | 117 ft | 23 kts | 42° |
| 2026-05-05 16:14 | 45.47522 | -73.72228 | 125 ft | 29 kts | 43° |
| 2026-05-05 16:15 | 45.47767 | -73.71905 | 129 ft | 19 kts | 43° |
| 2026-05-05 16:15 | 45.47769 | -73.71730 | 131 ft | 0 kts | 134° |
| 2026-05-05 16:16 | 45.47769 | -73.71729 | 131 ft | 1 kts | 134° |
| 2026-05-05 16:16 | 45.47675 | -73.71641 | 133 ft | 8 kts | 200° |
| 2026-05-05 16:17 | 45.47455 | -73.71924 | 128 ft | 76 kts | 223° |
| 2026-05-05 16:17 | 45.46835 | -73.72738 | 114 ft | 162 kts | 222° |
| 2026-05-05 16:18 | 45.45006 | -73.75079 | 1910 ft | 176 kts | 225° |
| 2026-05-05 16:18 | 45.44182 | -73.76333 | 2507 ft | 184 kts | 226° |
| 2026-05-05 16:18 | 45.42263 | -73.79025 | 3462 ft | 212 kts | 220° |
| 2026-05-05 16:19 | 45.40875 | -73.79853 | 4055 ft | 234 kts | 189° |
| 2026-05-05 16:19 | 45.39229 | -73.79325 | 4668 ft | 263 kts | 157° |
| 2026-05-05 16:19 | 45.37213 | -73.74656 | 6267 ft | 303 kts | 110° |
| 2026-05-05 16:20 | 45.36354 | -73.68687 | 7791 ft | 316 kts | 108° |
| 2026-05-05 16:20 | 45.35350 | -73.62621 | 9426 ft | 321 kts | 111° |
| 2026-05-05 16:21 | 45.34205 | -73.56383 | 10711 ft | 340 kts | 111° |
| 2026-05-05 16:22 | 45.32277 | -73.46003 | 12299 ft | 379 kts | 110° |
| 2026-05-05 16:22 | 45.30937 | -73.38680 | 13799 ft | 391 kts | 110° |
| 2026-05-05 16:23 | 45.29613 | -73.31473 | 15397 ft | 398 kts | 110° |
| 2026-05-05 16:23 | 45.28867 | -73.27440 | 16175 ft | 404 kts | 110° |
| 2026-05-05 16:23 | 45.27746 | -73.19525 | 17652 ft | 419 kts | 99° |
| 2026-05-05 16:24 | 45.27616 | -73.15416 | 18376 ft | 425 kts | 94° |
| 2026-05-05 16:24 | 45.27685 | -73.11233 | 19087 ft | 430 kts | 91° |
| 2026-05-05 16:24 | 45.28073 | -73.02692 | 20433 ft | 439 kts | 88° |
| 2026-05-05 16:25 | 45.28302 | -72.98328 | 21105 ft | 443 kts | 89° |
| 2026-05-05 16:25 | 45.28733 | -72.89573 | 22313 ft | 452 kts | 89° |
| 2026-05-05 16:25 | 45.28937 | -72.85111 | 22934 ft | 456 kts | 89° |
| 2026-05-05 16:26 | 45.29322 | -72.76107 | 24131 ft | 464 kts | 90° |
| 2026-05-05 16:26 | 45.29690 | -72.66979 | 25330 ft | 468 kts | 90° |
| 2026-05-05 16:27 | 45.29872 | -72.62361 | 25656 ft | 472 kts | 90° |
| 2026-05-05 16:27 | 45.30061 | -72.57655 | 25987 ft | 481 kts | 89° |
| 2026-05-05 16:27 | 45.30292 | -72.52931 | 26565 ft | 483 kts | 88° |
| 2026-05-05 16:27 | 45.30552 | -72.48179 | 27232 ft | 484 kts | 88° |
| 2026-05-05 16:28 | 45.30822 | -72.43445 | 27856 ft | 485 kts | 88° |
| 2026-05-05 16:28 | 45.31097 | -72.38674 | 28402 ft | 487 kts | 88° |
| 2026-05-05 16:28 | 45.31371 | -72.33839 | 28826 ft | 490 kts | 89° |
| 2026-05-05 16:28 | 45.31635 | -72.29095 | 29212 ft | 496 kts | 89° |
| 2026-05-05 16:29 | 45.31903 | -72.24154 | 29644 ft | 500 kts | 88° |
| 2026-05-05 16:29 | 45.32165 | -72.19282 | 30128 ft | 502 kts | 88° |
| 2026-05-05 16:29 | 45.32431 | -72.14298 | 30565 ft | 506 kts | 89° |
| 2026-05-05 16:29 | 45.32691 | -72.09307 | 31007 ft | 510 kts | 88° |
| 2026-05-05 16:30 | 45.32948 | -72.04312 | 31408 ft | 514 kts | 88° |
| 2026-05-05 16:30 | 45.33205 | -71.99236 | 31846 ft | 517 kts | 88° |
| 2026-05-05 16:30 | 45.33462 | -71.94112 | 32282 ft | 519 kts | 88° |
| 2026-05-05 16:30 | 45.33716 | -71.88985 | 32694 ft | 518 kts | 88° |
| 2026-05-05 16:31 | 45.33984 | -71.83935 | 33201 ft | 519 kts | 86° |
| 2026-05-05 16:31 | 45.34393 | -71.78867 | 33853 ft | 516 kts | 84° |
| 2026-05-05 16:31 | 45.34918 | -71.73852 | 34535 ft | 511 kts | 82° |
| 2026-05-05 16:31 | 45.35502 | -71.68880 | 35038 ft | 504 kts | 81° |
| 2026-05-05 16:32 | 45.36103 | -71.63928 | 35170 ft | 509 kts | 81° |
| 2026-05-05 16:32 | 45.36706 | -71.58936 | 35288 ft | 515 kts | 81° |
| 2026-05-05 16:32 | 45.37297 | -71.53936 | 35636 ft | 511 kts | 81° |
| 2026-05-05 16:32 | 45.37864 | -71.48986 | 35985 ft | 509 kts | 81° |
| 2026-05-05 16:33 | 45.38414 | -71.44035 | 36384 ft | 505 kts | 82° |
| 2026-05-05 16:33 | 45.38943 | -71.39158 | 36525 ft | 505 kts | 82° |
| 2026-05-05 16:33 | 45.39475 | -71.34167 | 36657 ft | 510 kts | 83° |
| 2026-05-05 16:33 | 45.39994 | -71.29239 | 36688 ft | 510 kts | 83° |
| 2026-05-05 16:34 | 45.41026 | -71.19338 | 36707 ft | 506 kts | 83° |
| 2026-05-05 16:34 | 45.42050 | -71.09424 | 36708 ft | 505 kts | 83° |
| 2026-05-05 16:35 | 45.43029 | -70.99635 | 36719 ft | 502 kts | 84° |
| 2026-05-05 16:35 | 45.43628 | -70.89745 | 36722 ft | 500 kts | 88° |
| 2026-05-05 16:36 | 45.44001 | -70.79839 | 36719 ft | 504 kts | 89° |
| 2026-05-05 16:36 | 45.44359 | -70.69931 | 36725 ft | 503 kts | 88° |
| 2026-05-05 16:37 | 45.44831 | -70.60025 | 36720 ft | 503 kts | 85° |
| 2026-05-05 16:37 | 45.45753 | -70.50165 | 36718 ft | 504 kts | 82° |
| 2026-05-05 16:38 | 45.46839 | -70.40318 | 36715 ft | 505 kts | 81° |
| 2026-05-05 16:38 | 45.47896 | -70.30502 | 36719 ft | 502 kts | 83° |
| 2026-05-05 16:39 | 45.48902 | -70.20669 | 36707 ft | 505 kts | 83° |
| 2026-05-05 16:39 | 45.49878 | -70.10775 | 36716 ft | 502 kts | 83° |
| 2026-05-05 16:40 | 45.50826 | -70.00929 | 36718 ft | 503 kts | 83° |
| 2026-05-05 16:40 | 45.51761 | -69.91080 | 36724 ft | 502 kts | 83° |
| 2026-05-05 16:41 | 45.52685 | -69.81265 | 36733 ft | 502 kts | 83° |
| 2026-05-05 16:41 | 45.53604 | -69.71403 | 36725 ft | 503 kts | 83° |
| 2026-05-05 16:42 | 45.54505 | -69.61643 | 36725 ft | 501 kts | 83° |
| 2026-05-05 16:42 | 45.55411 | -69.51744 | 36730 ft | 501 kts | 83° |
| 2026-05-05 16:43 | 45.56302 | -69.41920 | 36729 ft | 501 kts | 83° |
| 2026-05-05 16:43 | 45.57182 | -69.32121 | 36727 ft | 501 kts | 83° |
| 2026-05-05 16:44 | 45.58058 | -69.22260 | 36722 ft | 501 kts | 83° |
| 2026-05-05 16:44 | 45.58921 | -69.12467 | 36732 ft | 500 kts | 83° |
| 2026-05-05 16:45 | 45.59776 | -69.02650 | 36726 ft | 500 kts | 83° |
| 2026-05-05 16:45 | 45.60622 | -68.92850 | 36737 ft | 498 kts | 83° |
| 2026-05-05 16:46 | 45.61460 | -68.83044 | 36741 ft | 498 kts | 83° |
| 2026-05-05 16:46 | 45.62289 | -68.73241 | 36742 ft | 498 kts | 83° |
| 2026-05-05 16:47 | 45.63109 | -68.63451 | 36741 ft | 497 kts | 83° |
| 2026-05-05 16:47 | 45.63913 | -68.53728 | 36731 ft | 497 kts | 83° |
| 2026-05-05 16:48 | 45.64716 | -68.43906 | 36732 ft | 499 kts | 83° |
| 2026-05-05 16:48 | 45.65512 | -68.34065 | 36739 ft | 498 kts | 84° |
| 2026-05-05 16:49 | 45.66298 | -68.24258 | 36748 ft | 497 kts | 84° |
| 2026-05-05 16:49 | 45.67073 | -68.14485 | 36747 ft | 497 kts | 84° |
| 2026-05-05 16:50 | 45.67841 | -68.04692 | 36735 ft | 497 kts | 84° |
| 2026-05-05 16:50 | 45.68595 | -67.94958 | 36750 ft | 497 kts | 84° |
| 2026-05-05 16:51 | 45.69358 | -67.85178 | 36749 ft | 495 kts | 83° |
| 2026-05-05 16:51 | 45.70565 | -67.75495 | 36748 ft | 498 kts | 76° |
| 2026-05-05 16:52 | 45.72251 | -67.65930 | 36754 ft | 496 kts | 73° |
| 2026-05-05 16:52 | 45.74073 | -67.56463 | 36777 ft | 496 kts | 73° |
| 2026-05-05 16:53 | 45.75898 | -67.46972 | 36773 ft | 495 kts | 73° |
| 2026-05-05 16:53 | 45.77669 | -67.37558 | 36765 ft | 476 kts | 73° |
| 2026-05-05 16:54 | 45.78502 | -67.33062 | 36777 ft | 461 kts | 74° |
| 2026-05-05 16:54 | 45.79306 | -67.28693 | 36766 ft | 447 kts | 74° |
| 2026-05-05 16:54 | 45.80077 | -67.24491 | 36757 ft | 436 kts | 74° |
| 2026-05-05 16:54 | 45.80835 | -67.20342 | 36754 ft | 423 kts | 74° |
| 2026-05-05 16:55 | 45.81562 | -67.16345 | 36762 ft | 411 kts | 73° |
| 2026-05-05 16:55 | 45.82277 | -67.12414 | 36767 ft | 410 kts | 74° |
| 2026-05-05 16:55 | 45.83721 | -67.04468 | 36769 ft | 417 kts | 73° |
| 2026-05-05 16:56 | 45.85171 | -66.96436 | 36784 ft | 412 kts | 73° |
| 2026-05-05 16:56 | 45.86608 | -66.88445 | 36785 ft | 415 kts | 73° |
| 2026-05-05 16:57 | 45.88033 | -66.80484 | 36775 ft | 415 kts | 73° |
| 2026-05-05 16:57 | 45.89449 | -66.72536 | 36781 ft | 411 kts | 73° |
| 2026-05-05 16:58 | 45.90164 | -66.68509 | 36517 ft | 416 kts | 73° |
| 2026-05-05 16:58 | 45.90875 | -66.64499 | 36066 ft | 417 kts | 73° |
| 2026-05-05 16:58 | 45.91587 | -66.60471 | 35497 ft | 420 kts | 73° |
| 2026-05-05 16:58 | 45.92306 | -66.56401 | 34838 ft | 425 kts | 73° |
| 2026-05-05 16:59 | 45.93036 | -66.52251 | 34071 ft | 431 kts | 73° |
| 2026-05-05 16:59 | 45.93773 | -66.48067 | 33289 ft | 434 kts | 73° |
| 2026-05-05 16:59 | 45.94497 | -66.43915 | 32810 ft | 423 kts | 74° |
| 2026-05-05 16:59 | 45.94987 | -66.39884 | 32798 ft | 408 kts | 84° |
| 2026-05-05 17:00 | 45.94888 | -66.35883 | 32780 ft | 393 kts | 102° |
| 2026-05-05 17:00 | 45.94137 | -66.32212 | 32806 ft | 380 kts | 117° |
| 2026-05-05 17:00 | 45.91410 | -66.25704 | 32804 ft | 380 kts | 138° |
| 2026-05-05 17:01 | 45.89471 | -66.23231 | 32809 ft | 370 kts | 153° |
| 2026-05-05 17:01 | 45.87283 | -66.21497 | 32806 ft | 360 kts | 165° |
| 2026-05-05 17:01 | 45.82565 | -66.19585 | 32793 ft | 345 kts | 184° |
| 2026-05-05 17:02 | 45.80199 | -66.19665 | 32809 ft | 335 kts | 196° |
| 2026-05-05 17:02 | 45.77954 | -66.20332 | 32819 ft | 327 kts | 204° |
| 2026-05-05 17:02 | 45.73903 | -66.22928 | 32821 ft | 313 kts | 223° |
| 2026-05-05 17:03 | 45.70831 | -66.27164 | 32828 ft | 305 kts | 237° |
| 2026-05-05 17:03 | 45.69657 | -66.29641 | 32818 ft | 300 kts | 246° |
| 2026-05-05 17:03 | 45.68821 | -66.32354 | 32818 ft | 296 kts | 255° |
| 2026-05-05 17:04 | 45.68257 | -66.35188 | 32819 ft | 295 kts | 258° |
| 2026-05-05 17:04 | 45.67743 | -66.37999 | 32820 ft | 296 kts | 258° |
| 2026-05-05 17:04 | 45.67208 | -66.40864 | 32817 ft | 296 kts | 257° |
| 2026-05-05 17:04 | 45.66669 | -66.43708 | 32800 ft | 295 kts | 257° |
| 2026-05-05 17:05 | 45.66137 | -66.46511 | 32808 ft | 294 kts | 257° |
| 2026-05-05 17:05 | 45.65605 | -66.49313 | 32820 ft | 295 kts | 257° |
| 2026-05-05 17:05 | 45.65064 | -66.52175 | 32807 ft | 296 kts | 257° |
| 2026-05-05 17:05 | 45.64534 | -66.54981 | 32635 ft | 293 kts | 257° |
| 2026-05-05 17:06 | 45.64042 | -66.57810 | 32358 ft | 293 kts | 261° |
| 2026-05-05 17:06 | 45.63794 | -66.60673 | 32084 ft | 291 kts | 269° |
| 2026-05-05 17:06 | 45.63915 | -66.63529 | 31813 ft | 289 kts | 278° |
| 2026-05-05 17:06 | 45.64362 | -66.66303 | 31542 ft | 289 kts | 285° |
| 2026-05-05 17:07 | 45.65113 | -66.68973 | 31270 ft | 291 kts | 293° |
| 2026-05-05 17:07 | 45.66136 | -66.71449 | 31002 ft | 294 kts | 300° |
| 2026-05-05 17:07 | 45.67398 | -66.73743 | 30734 ft | 294 kts | 306° |
| 2026-05-05 17:07 | 45.68873 | -66.75806 | 30460 ft | 298 kts | 315° |
| 2026-05-05 17:08 | 45.70604 | -66.77431 | 30183 ft | 303 kts | 325° |
| 2026-05-05 17:08 | 45.72564 | -66.78629 | 29911 ft | 310 kts | 334° |
| 2026-05-05 17:08 | 45.74663 | -66.79428 | 29638 ft | 315 kts | 339° |
| 2026-05-05 17:08 | 45.76820 | -66.79964 | 29364 ft | 320 kts | 346° |
| 2026-05-05 17:09 | 45.79087 | -66.79878 | 29083 ft | 331 kts | 1° |
| 2026-05-05 17:09 | 45.81352 | -66.78995 | 28814 ft | 341 kts | 14° |
| 2026-05-05 17:09 | 45.83516 | -66.77536 | 28543 ft | 348 kts | 23° |
| 2026-05-05 17:09 | 45.85554 | -66.75692 | 28274 ft | 351 kts | 29° |
| 2026-05-05 17:10 | 45.87423 | -66.73404 | 27993 ft | 357 kts | 43° |
| 2026-05-05 17:10 | 45.88899 | -66.70541 | 27728 ft | 363 kts | 57° |
| 2026-05-05 17:10 | 45.89977 | -66.67273 | 27458 ft | 364 kts | 68° |
| 2026-05-05 17:10 | 45.90763 | -66.63844 | 27188 ft | 363 kts | 72° |
| 2026-05-05 17:11 | 45.91456 | -66.60338 | 26912 ft | 361 kts | 73° |
| 2026-05-05 17:11 | 45.92102 | -66.56911 | 26642 ft | 359 kts | 73° |
| 2026-05-05 17:11 | 45.92740 | -66.53459 | 26373 ft | 359 kts | 74° |
| 2026-05-05 17:11 | 45.93381 | -66.49983 | 26100 ft | 358 kts | 74° |
| 2026-05-05 17:12 | 45.94016 | -66.46547 | 25829 ft | 356 kts | 73° |
| 2026-05-05 17:12 | 45.94639 | -66.43115 | 25558 ft | 355 kts | 75° |
| 2026-05-05 17:12 | 45.95176 | -66.39615 | 25290 ft | 359 kts | 78° |
| 2026-05-05 17:12 | 45.95638 | -66.36142 | 25021 ft | 357 kts | 79° |
| 2026-05-05 17:13 | 45.96076 | -66.32664 | 24749 ft | 353 kts | 80° |
| 2026-05-05 17:13 | 45.96512 | -66.29194 | 24480 ft | 351 kts | 80° |
| 2026-05-05 17:13 | 45.96948 | -66.25773 | 24214 ft | 351 kts | 80° |
| 2026-05-05 17:13 | 45.97393 | -66.22318 | 23945 ft | 350 kts | 80° |
| 2026-05-05 17:14 | 45.97841 | -66.18893 | 23681 ft | 350 kts | 80° |
| 2026-05-05 17:14 | 45.98285 | -66.15501 | 23418 ft | 348 kts | 80° |
| 2026-05-05 17:14 | 45.98730 | -66.12108 | 23153 ft | 346 kts | 80° |
| 2026-05-05 17:14 | 45.99175 | -66.08709 | 22892 ft | 345 kts | 80° |
| 2026-05-05 17:15 | 45.99618 | -66.05325 | 22625 ft | 343 kts | 80° |
| 2026-05-05 17:15 | 46.00056 | -66.01976 | 22115 ft | 348 kts | 79° |
| 2026-05-05 17:15 | 46.00501 | -65.98570 | 21860 ft | 347 kts | 79° |
| 2026-05-05 17:15 | 46.00948 | -65.95141 | 21596 ft | 348 kts | 80° |
| 2026-05-05 17:16 | 46.01389 | -65.91752 | 21343 ft | 348 kts | 80° |
| 2026-05-05 17:16 | 46.01838 | -65.88290 | 20722 ft | 356 kts | 80° |
| 2026-05-05 17:16 | 46.02290 | -65.84796 | 20053 ft | 364 kts | 80° |
| 2026-05-05 17:16 | 46.02754 | -65.81204 | 19425 ft | 369 kts | 80° |
| 2026-05-05 17:17 | 46.03227 | -65.77538 | 18953 ft | 368 kts | 80° |
| 2026-05-05 17:17 | 46.03682 | -65.74000 | 18608 ft | 361 kts | 80° |
| 2026-05-05 17:17 | 46.04135 | -65.70463 | 18083 ft | 362 kts | 80° |
| 2026-05-05 17:17 | 46.04586 | -65.66924 | 17604 ft | 360 kts | 80° |
| 2026-05-05 17:18 | 46.05032 | -65.63419 | 17189 ft | 354 kts | 80° |
| 2026-05-05 17:18 | 46.05471 | -65.59966 | 16637 ft | 351 kts | 80° |
| 2026-05-05 17:18 | 46.05904 | -65.56548 | 16020 ft | 350 kts | 80° |
| 2026-05-05 17:18 | 46.06338 | -65.53108 | 15406 ft | 349 kts | 80° |
| 2026-05-05 17:19 | 46.06766 | -65.49709 | 14794 ft | 345 kts | 80° |
| 2026-05-05 17:19 | 46.07188 | -65.46354 | 14024 ft | 342 kts | 80° |
| 2026-05-05 17:19 | 46.07607 | -65.43022 | 13258 ft | 338 kts | 80° |
| 2026-05-05 17:19 | 46.08020 | -65.39726 | 12549 ft | 333 kts | 80° |
| 2026-05-05 17:20 | 46.08421 | -65.36523 | 12099 ft | 319 kts | 80° |
| 2026-05-05 17:20 | 46.08812 | -65.33378 | 11864 ft | 322 kts | 81° |
| 2026-05-05 17:20 | 46.09209 | -65.30169 | 11624 ft | 324 kts | 81° |
| 2026-05-05 17:20 | 46.09599 | -65.27023 | 11359 ft | 319 kts | 81° |
| 2026-05-05 17:21 | 46.09991 | -65.23856 | 11109 ft | 320 kts | 81° |
| 2026-05-05 17:21 | 46.10375 | -65.20752 | 10842 ft | 314 kts | 81° |
| 2026-05-05 17:21 | 46.10750 | -65.17709 | 10240 ft | 310 kts | 81° |
| 2026-05-05 17:22 | 46.11494 | -65.11649 | 8769 ft | 308 kts | 82° |
| 2026-05-05 17:22 | 46.11863 | -65.08634 | 8067 ft | 306 kts | 83° |
| 2026-05-05 17:22 | 46.12232 | -65.05617 | 7353 ft | 304 kts | 83° |
| 2026-05-05 17:22 | 46.12593 | -65.02663 | 6879 ft | 292 kts | 84° |
| 2026-05-05 17:23 | 46.12935 | -64.99875 | 6550 ft | 278 kts | 85° |
| 2026-05-05 17:23 | 46.13262 | -64.97212 | 6301 ft | 264 kts | 85° |
| 2026-05-05 17:23 | 46.13575 | -64.94591 | 6063 ft | 270 kts | 86° |
| 2026-05-05 17:23 | 46.13890 | -64.91936 | 5823 ft | 268 kts | 86° |
| 2026-05-05 17:24 | 46.14208 | -64.89275 | 5565 ft | 268 kts | 85° |
| 2026-05-05 17:24 | 46.14525 | -64.86643 | 5313 ft | 265 kts | 86° |
| 2026-05-05 17:24 | 46.14835 | -64.84061 | 5084 ft | 264 kts | 86° |
| 2026-05-05 17:24 | 46.15147 | -64.81478 | 4821 ft | 257 kts | 86° |
| 2026-05-05 17:25 | 46.15448 | -64.78984 | 4560 ft | 250 kts | 86° |
| 2026-05-05 17:25 | 46.15640 | -64.77375 | 4391 ft | 246 kts | 87° |
| 2026-05-05 17:25 | 46.16021 | -64.74171 | 4066 ft | 238 kts | 88° |
| 2026-05-05 17:25 | 46.16293 | -64.71903 | 3988 ft | 224 kts | 88° |
| 2026-05-05 17:26 | 46.16553 | -64.69740 | 4002 ft | 216 kts | 89° |
| 2026-05-05 17:26 | 46.16803 | -64.67583 | 3997 ft | 216 kts | 89° |
| 2026-05-05 17:26 | 46.17048 | -64.65460 | 4000 ft | 218 kts | 89° |
| 2026-05-05 17:26 | 46.17302 | -64.63303 | 4000 ft | 217 kts | 88° |
| 2026-05-05 17:27 | 46.17552 | -64.61177 | 4004 ft | 217 kts | 88° |
| 2026-05-05 17:27 | 46.17806 | -64.59026 | 3996 ft | 216 kts | 88° |
| 2026-05-05 17:27 | 46.18057 | -64.56891 | 3997 ft | 217 kts | 88° |
| 2026-05-05 17:27 | 46.18308 | -64.54751 | 4004 ft | 216 kts | 88° |
| 2026-05-05 17:28 | 46.18554 | -64.52644 | 4003 ft | 216 kts | 88° |
| 2026-05-05 17:28 | 46.18803 | -64.50514 | 3990 ft | 214 kts | 88° |
| 2026-05-05 17:28 | 46.19050 | -64.48444 | 3977 ft | 203 kts | 89° |
| 2026-05-05 17:28 | 46.19267 | -64.46452 | 3998 ft | 200 kts | 94° |
| 2026-05-05 17:29 | 46.19163 | -64.44536 | 3995 ft | 182 kts | 123° |
| 2026-05-05 17:29 | 46.18538 | -64.43103 | 3992 ft | 164 kts | 148° |
| 2026-05-05 17:29 | 46.17696 | -64.42059 | 3991 ft | 154 kts | 161° |
| 2026-05-05 17:29 | 46.16758 | -64.41492 | 3992 ft | 140 kts | 180° |
| 2026-05-05 17:30 | 46.15817 | -64.41382 | 3889 ft | 130 kts | 188° |
| 2026-05-05 17:30 | 46.14917 | -64.41351 | 3596 ft | 132 kts | 187° |
| 2026-05-05 17:30 | 46.13998 | -64.41299 | 3326 ft | 132 kts | 187° |
| 2026-05-05 17:30 | 46.13080 | -64.41273 | 3057 ft | 129 kts | 193° |
| 2026-05-05 17:31 | 46.12269 | -64.41658 | 2988 ft | 122 kts | 215° |
| 2026-05-05 17:31 | 46.11765 | -64.42657 | 3008 ft | 130 kts | 245° |
| 2026-05-05 17:31 | 46.11557 | -64.43920 | 3016 ft | 130 kts | 249° |
| 2026-05-05 17:31 | 46.11429 | -64.45225 | 3010 ft | 131 kts | 254° |
| 2026-05-05 17:32 | 46.11368 | -64.46555 | 2881 ft | 136 kts | 256° |
| 2026-05-05 17:32 | 46.11325 | -64.47906 | 2691 ft | 133 kts | 255° |
| 2026-05-05 17:32 | 46.11282 | -64.49224 | 2505 ft | 132 kts | 256° |
| 2026-05-05 17:32 | 46.11250 | -64.50488 | 2367 ft | 122 kts | 255° |
| 2026-05-05 17:33 | 46.11216 | -64.51675 | 2130 ft | 116 kts | 253° |
| 2026-05-05 17:33 | 46.11177 | -64.52824 | 2027 ft | 115 kts | 254° |
| 2026-05-05 17:33 | 46.11141 | -64.54002 | 1862 ft | 118 kts | 255° |
| 2026-05-05 17:33 | 46.11113 | -64.55153 | 1708 ft | 114 kts | 253° |
| 2026-05-05 17:34 | 46.11074 | -64.56320 | 1556 ft | 118 kts | 255° |
| 2026-05-05 17:34 | 46.11039 | -64.57529 | 1388 ft | 121 kts | 255° |
| 2026-05-05 17:34 | 46.11005 | -64.58743 | 1233 ft | 122 kts | 256° |
| 2026-05-05 17:34 | 46.10973 | -64.59949 | 1071 ft | 117 kts | 256° |
| 2026-05-05 17:35 | 46.10932 | -64.61142 | 919 ft | 121 kts | 256° |
| 2026-05-05 17:35 | 46.10897 | -64.62365 | 744 ft | 121 kts | 258° |
| 2026-05-05 17:35 | 46.10860 | -64.63595 | 595 ft | 123 kts | 258° |
| 2026-05-05 17:35 | 46.10825 | -64.64820 | 434 ft | 122 kts | 258° |
| 2026-05-05 17:36 | 46.10799 | -64.66026 | 269 ft | 120 kts | 258° |
| 2026-05-05 17:36 | 46.10764 | -64.67157 | 210 ft | 103 kts | 258° |
| 2026-05-05 17:36 | 46.10722 | -64.68025 | 214 ft | 62 kts | 269° |
| 2026-05-05 17:36 | 46.10716 | -64.68375 | 217 ft | 18 kts | 267° |
| 2026-05-05 17:37 | 46.10762 | -64.68473 | 217 ft | 12 kts | 355° |
| 2026-05-05 17:37 | 46.10826 | -64.68476 | 217 ft | 14 kts | 357° |
| 2026-05-05 17:37 | 46.10970 | -64.68484 | 214 ft | 17 kts | 357° |
| 2026-05-05 17:37 | 46.11095 | -64.68493 | 212 ft | 19 kts | 357° |
| 2026-05-05 17:38 | 46.11227 | -64.68502 | 210 ft | 16 kts | 356° |
| 2026-05-05 17:38 | 46.11331 | -64.68571 | 209 ft | 16 kts | 314° |
| 2026-05-05 17:38 | 46.11402 | -64.68684 | 206 ft | 12 kts | 312° |
| 2026-05-05 17:38 | 46.11440 | -64.68739 | 205 ft | 5 kts | 330° |
| 2026-05-05 17:39 | 46.11485 | -64.68720 | 204 ft | 8 kts | 41° |
| 2026-05-05 17:39 | 46.11527 | -64.68665 | 204 ft | 4 kts | 29° |
| 2026-05-05 17:39 | 46.11560 | -64.68690 | 204 ft | 6 kts | 317° |
| 2026-05-05 17:39 | 46.11583 | -64.68723 | 203 ft | 3 kts | 310° |
| 2026-05-05 17:40 | 46.11593 | -64.68739 | 203 ft | 1 kts | 313° |
| 2026-05-05 17:40 | 46.11596 | -64.68744 | 203 ft | 0 kts | 312° |